createdAt,value
2019-06-10T00:00:59.033Z,97817.95
2019-06-10T00:03:31.798Z,97817.95
2019-06-10T00:06:04.090Z,97822.95
2019-06-10T00:08:36.717Z,97826.69
2019-06-10T00:11:08.491Z,97824.00
2019-06-10T00:13:41.426Z,97823.92
2019-06-10T00:16:13.009Z,97822.06
2019-06-10T00:18:45.808Z,97828.47
2019-06-10T00:21:17.892Z,97830.19
2019-06-10T00:23:51.617Z,97830.19
2019-06-10T00:26:22.317Z,97830.19
2019-06-10T00:28:54.086Z,97835.72
2019-06-10T00:31:25.920Z,97842.95
2019-06-10T00:33:58.623Z,97846.81
2019-06-10T00:36:31.044Z,97850.92
2019-06-10T00:39:04.962Z,97850.08
2019-06-10T00:41:36.250Z,97855.69
2019-06-10T00:44:08.403Z,97872.78
2019-06-10T00:46:40.850Z,97872.78
2019-06-10T00:49:14.596Z,97873.05
2019-06-10T00:51:46.164Z,97870.95
2019-06-10T00:54:17.511Z,97870.95
2019-06-10T00:56:48.826Z,97869.75
2019-06-10T00:59:22.092Z,97864.08
2019-06-10T01:01:53.276Z,97869.62
2019-06-10T01:04:24.718Z,97868.94
2019-06-10T01:06:56.120Z,97869.14
2019-06-10T01:09:27.729Z,97869.71
2019-06-10T01:12:01.169Z,97868.63
2019-06-10T01:14:32.962Z,97877.97
2019-06-10T01:17:05.484Z,97877.97
2019-06-10T01:19:36.837Z,97877.30
2019-06-10T01:22:10.671Z,97892.42
2019-06-10T01:24:41.464Z,97892.42
2019-06-10T01:27:15.171Z,97905.83
2019-06-10T01:29:46.973Z,97923.67
2019-06-10T01:32:18.404Z,97923.67
2019-06-10T01:34:50.846Z,97935.33
2019-06-10T01:37:22.768Z,97934.80
2019-06-10T01:39:54.140Z,97941.17
2019-06-10T01:42:25.898Z,97940.02
2019-06-10T01:44:57.500Z,97940.02
2019-06-10T01:47:30.845Z,97945.15
2019-06-10T01:50:02.071Z,97936.08
2019-06-10T01:52:34.154Z,97935.13
2019-06-10T01:55:07.480Z,97952.80
2019-06-10T01:57:41.123Z,97957.67
2019-06-10T02:00:19.502Z,97948.00
2019-06-10T02:02:47.358Z,97946.66
2019-06-10T02:05:20.286Z,97950.80
2019-06-10T02:07:52.837Z,97949.82
2019-06-10T02:10:24.356Z,97972.30
2019-06-10T02:12:56.113Z,97972.30
2019-06-10T02:15:27.579Z,97966.97
2019-06-10T02:18:01.145Z,97970.48
2019-06-10T02:20:33.447Z,97951.38
2019-06-10T02:23:05.160Z,97956.42
2019-06-10T02:25:36.732Z,97956.42
2019-06-10T02:28:08.317Z,97962.57
2019-06-10T02:30:49.281Z,97962.57
2019-06-10T02:33:17.383Z,97971.94
2019-06-10T02:35:49.143Z,97962.19
2019-06-10T02:38:32.144Z,97962.19
2019-06-10T02:40:54.015Z,97962.16
2019-06-10T02:43:32.018Z,97960.81
2019-06-10T02:46:03.906Z,97956.37
2019-06-10T02:48:35.312Z,97946.43
2019-06-10T02:51:08.439Z,97932.67
2019-06-10T02:53:43.050Z,97932.67
2019-06-10T02:56:14.759Z,97939.14
2019-06-10T02:58:47.228Z,97940.27
2019-06-10T03:01:21.457Z,97938.41
2019-06-10T03:03:54.359Z,97944.58
2019-06-10T03:06:35.110Z,97939.29
2019-06-10T03:09:03.880Z,97936.70
2019-06-10T03:11:37.046Z,97941.39
2019-06-10T03:14:08.590Z,97939.98
2019-06-10T03:16:45.572Z,97941.25
2019-06-10T03:19:29.954Z,97940.17
2019-06-10T03:21:52.151Z,97924.55
2019-06-10T03:24:25.310Z,97924.55
2019-06-10T03:26:58.157Z,97927.81
2019-06-10T03:29:29.935Z,97926.56
2019-06-10T03:32:05.059Z,97926.56
2019-06-10T03:34:41.586Z,97921.48
2019-06-10T03:37:08.168Z,97916.27
2019-06-10T03:39:42.529Z,97916.27
2019-06-10T03:42:12.953Z,97911.50
2019-06-10T03:44:45.102Z,97907.05
2019-06-10T03:47:17.076Z,97905.23
2019-06-10T03:49:52.505Z,97894.20
2019-06-10T03:52:24.059Z,97900.78
2019-06-10T03:54:55.631Z,97886.85
2019-06-10T03:57:28.605Z,97897.84
2019-06-10T04:00:03.530Z,97897.20
2019-06-10T04:02:33.979Z,97897.20
2019-06-10T04:05:06.184Z,97899.94
2019-06-10T04:07:37.621Z,97882.25
2019-06-10T04:10:09.634Z,97882.25
2019-06-10T04:12:43.289Z,97884.02
2019-06-10T04:15:14.782Z,97885.49
2019-06-10T04:17:46.248Z,97885.49
2019-06-10T04:20:18.121Z,97880.84
2019-06-10T04:22:49.451Z,97879.05
2019-06-10T04:25:24.682Z,97875.23
2019-06-10T04:27:55.274Z,97868.13
2019-06-10T04:30:28.143Z,97868.60
2019-06-10T04:33:02.152Z,97864.24
2019-06-10T04:35:33.668Z,97864.24
2019-06-10T04:38:05.606Z,97862.92
2019-06-10T04:40:37.003Z,97854.03
2019-06-10T04:43:12.288Z,97856.89
2019-06-10T04:45:43.682Z,97855.02
2019-06-10T04:48:15.201Z,97853.67
2019-06-10T04:50:46.971Z,97856.08
2019-06-10T04:53:18.749Z,97856.62
2019-06-10T04:55:52.100Z,97848.80
2019-06-10T04:58:27.036Z,97852.31
2019-06-10T05:00:56.988Z,97854.28
2019-06-10T05:03:29.588Z,97854.28
2019-06-10T05:06:03.427Z,97849.89
2019-06-10T05:08:34.952Z,97851.59
2019-06-10T05:11:06.514Z,97851.58
2019-06-10T05:13:38.279Z,97847.26
2019-06-10T05:16:12.525Z,97850.50
2019-06-10T05:18:44.818Z,97838.84
2019-06-10T05:21:16.277Z,97845.06
2019-06-10T05:23:48.002Z,97840.72
2019-06-10T05:26:20.043Z,97839.39
2019-06-10T05:28:52.888Z,97839.39
2019-06-10T05:31:27.351Z,97835.03
2019-06-10T05:33:57.779Z,97832.86
2019-06-10T05:36:31.057Z,97837.50
2019-06-10T05:39:02.818Z,97829.36
2019-06-10T05:41:35.177Z,97829.28
2019-06-10T05:44:06.630Z,97828.77
2019-06-10T05:46:38.561Z,97819.55
2019-06-10T05:49:12.492Z,97819.55
2019-06-10T05:51:44.530Z,97819.75
2019-06-10T05:54:16.213Z,97818.73
2019-06-10T05:56:47.860Z,97811.92
2019-06-10T05:59:19.242Z,97804.41
2019-06-10T06:01:53.944Z,97798.30
2019-06-10T06:04:25.062Z,97798.30
2019-06-10T06:06:57.582Z,97798.02
2019-06-10T06:09:29.460Z,97799.55
2019-06-10T06:12:02.519Z,97799.55
2019-06-10T06:14:36.144Z,97789.80
2019-06-10T06:17:07.741Z,97785.33
2019-06-10T06:19:39.055Z,97785.33
2019-06-10T06:22:12.656Z,97780.82
2019-06-10T06:24:43.966Z,97778.66
2019-06-10T06:27:15.605Z,97779.95
2019-06-10T06:29:47.913Z,97779.40
2019-06-10T06:32:19.499Z,97768.74
2019-06-10T06:34:52.693Z,97767.56
2019-06-10T06:37:24.674Z,97767.56
2019-06-10T06:39:56.062Z,97763.09
2019-06-10T06:42:27.653Z,97760.54
2019-06-10T06:44:59.730Z,97765.66
2019-06-10T06:47:34.057Z,97761.14
2019-06-10T06:50:04.746Z,97754.50
2019-06-10T06:53:13.964Z,97751.63
2019-06-10T06:55:09.845Z,97752.28
2019-06-10T06:57:43.170Z,97733.23
2019-06-10T07:00:41.028Z,97742.54
2019-06-10T07:02:48.148Z,97745.91
2019-06-10T07:05:19.751Z,97745.91
2019-06-10T07:07:52.735Z,97736.72
2019-06-10T07:10:24.831Z,97726.22
2019-06-10T07:12:59.079Z,97723.56
2019-06-10T07:15:46.929Z,97722.84
2019-06-10T07:18:18.333Z,97710.62
2019-06-10T07:20:49.726Z,97706.53
2019-06-10T07:23:22.512Z,97701.47
2019-06-10T07:25:54.391Z,97697.28
2019-06-10T07:28:26.365Z,97698.16
2019-06-10T07:30:57.974Z,97690.05
2019-06-10T07:33:29.735Z,97680.16
2019-06-10T07:36:03.170Z,97680.16
2019-06-10T07:38:38.961Z,97669.04
2019-06-10T07:41:09.394Z,97669.04
2019-06-10T07:43:46.504Z,97676.45
2019-06-10T07:46:14.825Z,97666.00
2019-06-10T07:48:48.641Z,97666.00
2019-06-10T07:51:22.343Z,97660.95
2019-06-10T07:53:53.863Z,97660.95
2019-06-10T07:56:25.408Z,97651.58
2019-06-10T07:58:57.365Z,97642.56
2019-06-10T08:01:29.018Z,97643.02
2019-06-10T08:04:02.953Z,97636.17
2019-06-10T08:06:36.099Z,97628.16
2019-06-10T08:09:08.047Z,97625.48
2019-06-10T08:11:39.822Z,97625.48
2019-06-10T08:14:13.126Z,97626.14
2019-06-10T08:16:46.698Z,97615.19
2019-06-10T08:19:33.358Z,97616.81
2019-06-10T08:21:53.644Z,97620.64
2019-06-10T08:24:25.011Z,97612.32
2019-06-10T08:26:56.641Z,97607.77
2019-06-10T08:29:28.497Z,97604.12
2019-06-10T08:32:03.015Z,97600.52
2019-06-10T08:34:33.779Z,97599.34
2019-06-10T08:37:05.285Z,97593.28
2019-06-10T08:39:38.157Z,97596.75
2019-06-10T08:42:09.818Z,97584.70
2019-06-10T08:44:43.506Z,97584.70
2019-06-10T08:47:14.808Z,97586.74
2019-06-10T08:49:48.811Z,97581.38
2019-06-10T08:52:19.411Z,97575.33
2019-06-10T08:54:54.143Z,97567.22
2019-06-10T08:57:24.262Z,97567.22
2019-06-10T08:59:55.735Z,97566.13
2019-06-10T09:02:27.300Z,97573.82
2019-06-10T09:04:58.994Z,97573.82
2019-06-10T09:07:32.264Z,97567.14
2019-06-10T09:10:05.895Z,97560.76
2019-06-10T09:12:38.487Z,97534.80
2019-06-10T09:15:13.039Z,97534.80
2019-06-10T09:17:49.345Z,97520.22
2019-06-10T09:20:22.994Z,97541.89
2019-06-10T09:23:13.938Z,97555.20
2019-06-10T09:25:28.203Z,97555.20
2019-06-10T09:28:02.218Z,97545.61
2019-06-10T09:30:36.732Z,97546.36
2019-06-10T09:33:09.007Z,97549.27
2019-06-10T09:35:42.552Z,97549.84
2019-06-10T09:38:14.283Z,97555.66
2019-06-10T09:41:00.875Z,97550.36
2019-06-10T09:43:26.922Z,97561.91
2019-06-10T09:45:58.843Z,97547.48
2019-06-10T09:48:33.305Z,97541.63
2019-06-10T09:51:04.485Z,97541.63
2019-06-10T09:53:42.798Z,97541.44
2019-06-10T09:56:09.533Z,97538.44
2019-06-10T09:58:44.722Z,97539.27
2019-06-10T10:01:14.558Z,97524.52
2019-06-10T10:03:50.206Z,97525.73
2019-06-10T10:06:19.620Z,97525.45
2019-06-10T10:08:57.536Z,97523.05
2019-06-10T10:11:28.264Z,97524.67
2019-06-10T10:13:58.547Z,97516.36
2019-06-10T10:16:33.906Z,97509.34
2019-06-10T10:19:06.659Z,97499.05
2019-06-10T10:21:41.242Z,97502.08
2019-06-10T10:24:14.953Z,97500.27
2019-06-10T10:26:48.585Z,97497.05
2019-06-10T10:29:19.227Z,97497.05
2019-06-10T10:31:52.733Z,97497.05
2019-06-10T10:34:24.775Z,97492.20
2019-06-10T10:36:57.363Z,97490.17
2019-06-10T10:39:29.313Z,97495.00
2019-06-10T10:42:04.007Z,97493.63
2019-06-10T10:44:35.781Z,97493.09
2019-06-10T10:47:07.645Z,97476.02
2019-06-10T10:49:39.562Z,97476.02
2019-06-10T10:52:12.975Z,97479.28
2019-06-10T10:54:46.183Z,97469.06
2019-06-10T10:57:18.209Z,97469.06
2019-06-10T10:59:52.455Z,97462.98
2019-06-10T11:02:23.890Z,97474.65
2019-06-10T11:04:56.999Z,97471.49
2019-06-10T11:07:28.935Z,97467.42
2019-06-10T11:10:00.456Z,97466.77
2019-06-10T11:12:34.308Z,97465.52
2019-06-10T11:15:06.873Z,97465.44
2019-06-10T11:17:38.864Z,97468.08
2019-06-10T11:20:12.991Z,97467.06
2019-06-10T11:22:45.734Z,97461.42
2019-06-10T11:25:17.472Z,97451.62
2019-06-10T11:27:50.013Z,97451.62
2019-06-10T11:30:22.408Z,97456.34
2019-06-10T11:32:57.714Z,97459.89
2019-06-10T11:35:27.380Z,97454.96
2019-06-10T11:37:58.688Z,97447.66
2019-06-10T11:40:34.217Z,97445.53
2019-06-10T11:43:05.474Z,97445.53
2019-06-10T11:45:37.242Z,97450.06
2019-06-10T11:48:08.965Z,97443.94
2019-06-10T11:50:42.845Z,97443.84
2019-06-10T11:53:14.834Z,97447.84
2019-06-10T11:55:47.611Z,97440.38
2019-06-10T11:58:19.191Z,97440.38
2019-06-10T12:00:54.306Z,97442.88
2019-06-10T12:03:23.758Z,97444.93
2019-06-10T12:05:57.774Z,97439.17
2019-06-10T12:08:32.688Z,97443.38
2019-06-10T12:11:03.142Z,97445.70
2019-06-10T12:13:34.917Z,97442.84
2019-06-10T12:16:51.500Z,97444.09
2019-06-10T12:18:42.641Z,97436.05
2019-06-10T12:21:14.194Z,97441.57
2019-06-10T12:23:46.510Z,97437.23
2019-06-10T12:26:18.159Z,97438.20
2019-06-10T12:28:50.704Z,97440.66
2019-06-10T12:31:23.414Z,97442.55
2019-06-10T12:33:57.279Z,97443.14
2019-06-10T12:36:28.429Z,97442.11
2019-06-10T12:39:06.792Z,97446.39
2019-06-10T12:41:35.179Z,97446.39
2019-06-10T12:44:06.518Z,97442.39
2019-06-10T12:46:38.121Z,97448.21
2019-06-10T12:49:09.641Z,97438.23
2019-06-10T12:51:41.589Z,97440.79
2019-06-10T12:54:13.213Z,97440.94
2019-06-10T12:56:45.041Z,97444.40
2019-06-10T12:59:16.675Z,97444.40
2019-06-10T13:01:49.623Z,97450.23
2019-06-10T13:04:21.189Z,97454.17
2019-06-10T13:06:53.523Z,97455.69
2019-06-10T13:09:26.392Z,97455.69
2019-06-10T13:11:58.343Z,97462.20
2019-06-10T13:14:32.640Z,97466.35
2019-06-10T13:17:05.774Z,97463.45
2019-06-10T13:19:37.456Z,97463.81
2019-06-10T13:22:08.979Z,97463.81
2019-06-10T13:24:42.208Z,97472.56
2019-06-10T13:27:13.522Z,97471.52
2019-06-10T13:29:45.252Z,97471.52
2019-06-10T13:32:16.912Z,97476.66
2019-06-10T13:34:48.554Z,97481.36
2019-06-10T13:37:19.936Z,97483.83
2019-06-10T13:39:52.403Z,97483.83
2019-06-10T13:42:24.131Z,97495.49
2019-06-10T13:44:57.516Z,97495.49
2019-06-10T13:47:29.197Z,97495.25
2019-06-10T13:50:01.626Z,97502.33
2019-06-10T13:52:35.756Z,97502.66
2019-06-10T13:55:09.640Z,97504.58
2019-06-10T13:57:42.659Z,97514.62
2019-06-10T14:00:14.899Z,97514.62
2019-06-10T14:02:46.457Z,97515.72
2019-06-10T14:05:19.236Z,97516.77
2019-06-10T14:07:52.114Z,97519.99
2019-06-10T14:10:24.891Z,97519.99
2019-06-10T14:12:56.371Z,97525.43
2019-06-10T14:15:29.648Z,97528.92
2019-06-10T14:18:01.833Z,97533.25
2019-06-10T14:20:36.686Z,97533.79
2019-06-10T14:23:08.030Z,97536.98
2019-06-10T14:25:42.409Z,97534.80
2019-06-10T14:28:32.451Z,97543.48
2019-06-10T14:30:47.310Z,97542.13
2019-06-10T14:33:18.868Z,97544.03
2019-06-10T14:35:53.107Z,97542.13
2019-06-10T14:38:23.653Z,97545.06
2019-06-10T14:40:55.175Z,97545.06
2019-06-10T14:43:26.727Z,97549.09
2019-06-10T14:45:58.303Z,97549.34
2019-06-10T14:48:29.928Z,97546.11
2019-06-10T14:51:03.301Z,97554.77
2019-06-10T14:53:34.569Z,97554.16
2019-06-10T14:56:07.607Z,97561.98
2019-06-10T14:58:39.477Z,97567.13
2019-06-10T15:01:13.468Z,97561.95
2019-06-10T15:03:44.682Z,97570.59
2019-06-10T15:06:16.462Z,97573.83
2019-06-10T15:08:54.380Z,97578.37
2019-06-10T15:11:27.696Z,97578.37
2019-06-10T15:13:59.373Z,97579.34
2019-06-10T15:16:33.435Z,97586.58
2019-06-10T15:19:14.659Z,97586.58
2019-06-10T15:21:38.050Z,97590.13
2019-06-10T15:24:09.888Z,97590.13
2019-06-10T15:26:42.272Z,97593.82
2019-06-10T15:29:17.023Z,97593.03
2019-06-10T15:31:47.931Z,97599.42
2019-06-10T15:34:20.055Z,97599.42
2019-06-10T15:36:52.744Z,97597.91
2019-06-10T15:39:24.416Z,97607.23
2019-06-10T15:41:55.847Z,97608.87
2019-06-10T15:44:47.877Z,97613.25
2019-06-10T15:47:02.916Z,97613.25
2019-06-10T15:49:33.766Z,97621.69
2019-06-10T15:52:06.201Z,97617.71
2019-06-10T15:54:37.784Z,97627.81
2019-06-10T15:57:22.751Z,97630.80
2019-06-10T15:59:43.137Z,97631.13
2019-06-10T16:02:17.913Z,97631.13
2019-06-10T16:04:57.506Z,97632.13
2019-06-10T16:07:29.153Z,97635.92
2019-06-10T16:10:02.717Z,97640.48
2019-06-10T16:12:33.863Z,97645.35
2019-06-10T16:15:05.456Z,97645.35
2019-06-10T16:17:37.258Z,97643.81
2019-06-10T16:20:09.392Z,97643.81
2019-06-10T16:22:42.820Z,97652.79
2019-06-10T16:25:14.345Z,97648.73
2019-06-10T16:27:50.956Z,97655.31
2019-06-10T16:30:20.826Z,97655.31
2019-06-10T16:32:53.127Z,97659.52
2019-06-10T16:35:26.798Z,97660.01
2019-06-10T16:37:57.661Z,97663.63
2019-06-10T16:40:29.048Z,97663.63
2019-06-10T16:43:00.591Z,97675.04
2019-06-10T16:45:34.015Z,97675.04
2019-06-10T16:48:05.941Z,97676.46
2019-06-10T16:50:37.482Z,97682.18
2019-06-10T16:53:09.229Z,97676.86
2019-06-10T16:55:40.976Z,97678.55
2019-06-10T16:58:13.003Z,97685.16
2019-06-10T17:00:44.616Z,97687.11
2019-06-10T17:03:16.704Z,97682.78
2019-06-10T17:05:48.319Z,97686.95
2019-06-10T17:08:20.610Z,97681.38
2019-06-10T17:10:53.104Z,97686.45
2019-06-10T17:13:27.196Z,97686.45
2019-06-10T17:15:59.736Z,97689.15
2019-06-10T17:18:33.622Z,97687.47
2019-06-10T17:21:07.547Z,97679.20
2019-06-10T17:23:39.103Z,97677.69
2019-06-10T17:26:10.752Z,97677.69
2019-06-10T17:28:42.844Z,97687.61
2019-06-10T17:31:15.199Z,97687.61
2019-06-10T17:33:46.892Z,97685.19
2019-06-10T17:36:18.625Z,97684.95
2019-06-10T17:38:52.323Z,97684.95
2019-06-10T17:41:26.261Z,97687.33
2019-06-10T17:43:56.683Z,97687.33
2019-06-10T17:46:29.484Z,97681.83
2019-06-10T17:49:04.205Z,97680.78
2019-06-10T17:51:36.309Z,97680.08
2019-06-10T17:54:08.050Z,97680.08
2019-06-10T17:56:39.485Z,97679.73
2019-06-10T17:59:12.834Z,97684.18
2019-06-10T18:01:44.216Z,97684.18
2019-06-10T18:04:15.711Z,97691.16
2019-06-10T18:06:47.271Z,97687.83
2019-06-10T18:09:19.114Z,97680.66
2019-06-10T18:11:50.564Z,97680.66
2019-06-10T18:14:22.924Z,97677.59
2019-06-10T18:16:55.208Z,97679.77
2019-06-10T18:19:26.758Z,97678.88
2019-06-10T18:21:58.623Z,97677.06
2019-06-10T18:24:30.882Z,97681.00
2019-06-10T18:27:02.746Z,97673.16
2019-06-10T18:29:36.930Z,97673.16
2019-06-10T18:32:07.872Z,97672.58
2019-06-10T18:34:39.095Z,97673.75
2019-06-10T18:37:10.649Z,97682.33
2019-06-10T18:39:43.008Z,97682.33
2019-06-10T18:42:14.705Z,97685.84
2019-06-10T18:44:46.187Z,97685.22
2019-06-10T18:47:17.728Z,97688.45
2019-06-10T18:49:49.173Z,97704.38
2019-06-10T18:52:23.186Z,97704.38
2019-06-10T18:54:53.926Z,97703.64
2019-06-10T18:57:28.784Z,97696.77
2019-06-10T19:00:02.872Z,97688.38
2019-06-10T19:02:34.450Z,97688.52
2019-06-10T19:05:06.679Z,97688.52
2019-06-10T19:07:38.708Z,97685.59
2019-06-10T19:10:12.976Z,97688.62
2019-06-10T19:12:44.750Z,97691.86
2019-06-10T19:15:16.597Z,97680.53
2019-06-10T19:17:48.149Z,97677.68
2019-06-10T19:20:20.055Z,97677.68
2019-06-10T19:22:52.719Z,97680.81
2019-06-10T19:25:23.991Z,97680.81
2019-06-10T19:27:55.646Z,97679.61
2019-06-10T19:30:34.039Z,97676.77
2019-06-10T19:33:05.923Z,97673.61
2019-06-10T19:35:42.556Z,97664.94
2019-06-10T19:38:13.714Z,97662.69
2019-06-10T19:40:46.833Z,97664.89
2019-06-10T19:43:27.639Z,97664.00
2019-06-10T19:45:59.897Z,97658.40
2019-06-10T19:48:35.385Z,97658.84
2019-06-10T19:51:05.926Z,97658.16
2019-06-10T19:53:37.373Z,97658.16
2019-06-10T19:56:09.064Z,97653.69
2019-06-10T19:58:42.985Z,97663.82
2019-06-10T20:01:13.828Z,97650.12
2019-06-10T20:03:54.541Z,97649.16
2019-06-10T20:06:32.297Z,97654.30
2019-06-10T20:09:03.880Z,97654.30
2019-06-10T20:11:38.323Z,97658.71
2019-06-10T20:14:12.690Z,97652.98
2019-06-10T20:16:45.952Z,97650.75
2019-06-10T20:19:17.219Z,97651.78
2019-06-10T20:21:51.920Z,97648.51
2019-06-10T20:24:23.710Z,97650.75
2019-06-10T20:26:55.417Z,97648.81
2019-06-10T20:29:27.759Z,97657.17
2019-06-10T20:31:59.539Z,97708.13
2019-06-10T20:34:31.616Z,97708.13
2019-06-10T20:37:07.411Z,97712.74
2019-06-10T20:39:40.567Z,97718.11
2019-06-10T20:42:12.954Z,97695.02
2019-06-10T20:44:45.985Z,97695.02
2019-06-10T20:47:17.955Z,97700.05
2019-06-10T20:49:51.850Z,97705.52
2019-06-10T20:52:22.837Z,97711.80
2019-06-10T20:54:54.299Z,97714.77
2019-06-10T20:57:26.100Z,97702.77
2019-06-10T20:59:57.969Z,97702.77
2019-06-10T21:02:30.313Z,97700.98
2019-06-10T21:05:06.120Z,97690.05
2019-06-10T21:07:39.211Z,97681.20
2019-06-10T21:10:12.854Z,97681.20
2019-06-10T21:12:49.787Z,97685.19
2019-06-10T21:15:23.316Z,97681.20
2019-06-10T21:17:54.840Z,97684.73
2019-06-10T21:20:33.118Z,97680.17
2019-06-10T21:23:05.846Z,97680.17
2019-06-10T21:25:43.151Z,97671.23
2019-06-10T21:28:14.259Z,97671.23
2019-06-10T21:30:58.634Z,97668.35
2019-06-10T21:33:37.793Z,97672.53
2019-06-10T21:36:15.652Z,97677.85
2019-06-10T21:38:49.347Z,97677.85
2019-06-10T21:41:22.886Z,97680.55
2019-06-10T21:43:59.206Z,97680.55
2019-06-10T21:46:27.785Z,97675.52
2019-06-10T21:48:59.545Z,97675.50
2019-06-10T21:51:34.149Z,97675.50
2019-06-10T21:54:12.264Z,97670.55
2019-06-10T21:56:44.531Z,97670.55
2019-06-10T21:59:16.663Z,97667.91
2019-06-10T22:01:49.187Z,97671.05
2019-06-10T22:04:22.466Z,97670.34
2019-06-10T22:06:55.986Z,97666.06
2019-06-10T22:09:27.221Z,97656.33
2019-06-10T22:11:58.842Z,97656.00
2019-06-10T22:14:32.839Z,97654.13
2019-06-10T22:17:03.934Z,97654.13
2019-06-10T22:19:35.451Z,97642.39
2019-06-10T22:22:07.166Z,97649.80
2019-06-10T22:24:38.842Z,97643.53
2019-06-10T22:27:10.236Z,97643.53
2019-06-10T22:29:42.685Z,97646.22
2019-06-10T22:32:14.157Z,97647.48
2019-06-10T22:34:45.826Z,97655.09
2019-06-10T22:37:17.391Z,97643.44
2019-06-10T22:39:50.023Z,97647.34
2019-06-10T22:42:22.341Z,97653.36
2019-06-10T22:44:56.345Z,97653.36
2019-06-10T22:47:26.790Z,97652.86
2019-06-10T22:50:00.945Z,97649.56
2019-06-10T22:52:32.668Z,97655.32
2019-06-10T22:55:04.415Z,97655.32
2019-06-10T22:57:37.588Z,97651.61
2019-06-10T23:00:09.724Z,97648.65
2019-06-10T23:02:43.714Z,97656.43
2019-06-10T23:05:17.462Z,97656.43
2019-06-10T23:07:50.786Z,97660.17
2019-06-10T23:10:22.837Z,97665.06
2019-06-10T23:12:56.340Z,97665.06
2019-06-10T23:15:27.864Z,97662.58
2019-06-10T23:18:00.305Z,97665.18
2019-06-10T23:20:33.196Z,97665.70
2019-06-10T23:23:05.031Z,97662.86
2019-06-10T23:25:36.627Z,97677.23
2019-06-10T23:28:08.007Z,97677.23
2019-06-10T23:30:39.598Z,97678.66
2019-06-10T23:33:12.492Z,97674.63
2019-06-10T23:35:47.489Z,97684.42
2019-06-10T23:38:17.699Z,97684.42
2019-06-10T23:40:50.561Z,97681.77
2019-06-10T23:43:22.647Z,97690.78
2019-06-10T23:45:55.114Z,97690.78
2019-06-10T23:48:26.804Z,97703.16
2019-06-10T23:50:59.256Z,97708.44
2019-06-10T23:53:32.813Z,97703.98
2019-06-10T23:56:05.219Z,97718.11
2019-06-10T23:58:36.853Z,97720.56
